Flight Track Log - Related Links

Times and Time Zones

All times are in EDT time to prevent confusion due to time zone crossing. See the CPZ5702 flight status page for this flight to view local times or setup timezone preferences in your user account.

Time Position Orientation Groundspeed Altitude Reporting Facility
EDT Latitude Longitude Course Direction KTS MPH feet Rate Location/Type
Thu 01:27:51 PM 42.7186 -76.7561 128° Southeast 398 458 21,000  Level Boston Center
Thu 01:28:51 PM 42.6631 -76.6222 119° Southeast 418 481 21,000  Level Boston Center
Thu 01:29:51 PM 42.6394 -76.4739 102° East 404 465 21,000  Level Boston Center
Thu 01:30:51 PM 42.6194 -76.3286 101° East 399 459 21,000  Level Boston Center
Thu 01:31:51 PM 42.5956 -76.1661 101° East 394 453 21,000  Level Boston Center
Thu 01:32:00 PM 42.3311 -76.3387 128° Southeast  Level Estimated
Thu 01:33:03 PM 42.5775 -76.0186 99° East 394 453 21,000  Level Boston Center
Thu 01:34:03 PM 42.5517 -75.8422 101° East 394 453 21,000  Level Boston Center
Thu 01:35:03 PM 42.5308 -75.6972 101° East 394 453 21,000  Level Boston Center
Thu 01:36:03 PM 42.5100 -75.5525 101° East 394 453 21,000  Level Boston Center
Thu 01:37:03 PM 42.4908 -75.4081 100° East 394 453 21,000  Level Boston Center
Thu 01:38:03 PM 42.4697 -75.2578 101° East 394 453 21,000  Level Boston Center
Thu 01:39:03 PM 42.4250 -75.1206 114° Southeast 394 453 21,000  Level Boston Center
Thu 01:40:03 PM 42.3758 -74.9892 117° Southeast 394 453 21,000  Level Boston Center
Thu 01:41:03 PM 42.3247 -74.8553 117° Southeast 394 453 21,000  Level Boston Center
Thu 01:42:03 PM 42.2753 -74.7242 117° Southeast 394 453 21,000  Level Boston Center
Thu 01:43:03 PM 42.2258 -74.5906 117° Southeast 399 459 21,000 -150 Level Boston Center
Thu 01:44:03 PM 42.1761 -74.4572 117° Southeast 399 459 20,700 -1,100 Descending Boston Center
Thu 01:45:03 PM 42.1364 -74.3467 116° Southeast 389 448 18,800 -1,350 Descending Boston Center
Thu 01:46:03 PM 42.0631 -74.2467 135° Southeast 335 386 18,000 -400 Descending Boston Center
Thu 01:47:03 PM 41.9928 -74.2056 156° South 335 386 18,000  Level Boston Center
Thu 01:48:03 PM 41.8894 -74.1467 157° South 341 392 18,000 -250 Level Boston Center
Thu 01:49:03 PM 41.8006 -74.0942 156° South 341 392 17,500 -800 Descending Boston Center
Thu 01:50:03 PM 41.7322 -74.0564 158° South 341 392 16,400 -1,500 Descending Boston Center
Thu 01:51:03 PM 41.6331 -73.9956 155° Southeast 333 383 14,500 -1,733 Descending Boston Center
Thu 01:51:33 PM 41.5833 -73.9667 157° South 326 375 13,800 -1,533 Descending New York TRACON
Thu 01:52:33 PM 41.5167 -73.9167 151° Southeast 321 369 12,200 -1,550 Descending New York TRACON
Thu 01:53:33 PM 41.4333 -73.8833 163° South 308 354 10,700 -1,450 Descending New York TRACON
Thu 01:54:33 PM 41.3667 -73.8167 143° Southeast 281 323 9,300 -1,350 Descending New York TRACON
Thu 01:55:33 PM 41.3000 -73.7667 151° Southeast 273 314 8,000 -650 Descending New York TRACON
Thu 01:56:33 PM 41.2333 -73.7000 143° Southeast 274 315 8,000 -100 Level New York TRACON
Thu 01:57:33 PM 41.1667 -73.6500 151° Southeast 276 318 7,800 -1,000 Descending New York TRACON
Thu 01:58:33 PM 41.1000 -73.6833 201° Southwest 271 312 6,000 -1,400 Descending New York TRACON
Thu 01:59:33 PM 41.0333 -73.7167 201° Southwest 280 322 5,000 -800 Descending New York TRACON
Thu 02:00:33 PM 40.9833 -73.7833 225° Southwest 274 315 4,400 -500 Descending New York TRACON
Thu 02:01:33 PM 40.9500 -73.8667 242° Southwest 265 305 4,000 -200 Descending New York TRACON
Thu 02:02:33 PM 40.8833 -73.9333 217° Southwest 270 311 4,000  Level New York TRACON
Thu 02:03:33 PM 40.8333 -73.9667 207° Southwest 243 280 4,000  Level New York TRACON
Thu 02:04:33 PM 40.7833 -73.9833 194° South 191 220 4,000  Level New York TRACON
Thu 02:06:33 PM 40.6833 -74.0500 207° Southwest 191 220 4,000 -233 Level New York TRACON
Thu 02:07:33 PM 40.6333 -74.0167 153° Southeast 212 244 3,300 -1,000 Descending New York TRACON
Thu 02:08:33 PM 40.6667 -73.9667 49° Northeast 191 220 2,000 -800 Descending New York TRACON
Thu 02:09:33 PM 40.7000 -73.9500 21° North 152 175 1,700 -550 Descending New York TRACON
Thu 02:10:33 PM 40.7333 -73.9167 37° Northeast 132 152 900 -700 Descending New York TRACON
Thu 02:11:33 PM 40.7667 -73.9000 21° North 129 148 300 -600 Descending New York TRACON

Login

Don't have an account? Register now (free) for customized features, flight alerts, and more!